Airfield :
LOGIN :

Register | Disclaimer

   EN    FR    IT 

 










Legend :    VFR   Marginal VFR   IFR   Intensive IFR   Very Intensive IFR
Visi :
Ceiling :
>= 8 km
>= 3000ft
5 to 8 km
1000 to 3000 ft
1500m to 5 km
500 to 1000 ft
800 to 1500m
200 to 500 ft
< 800m
< 200 ft
Symbols :   Thunderstorms  Fog  Heavy snow  Heavy precipitations  Wind > 20 kt
SIGMETs :     Misc.  Thunderstorms  Icing  Turbulence  Mountain Waves  Volcanic Ashes






- Airport Elevation : 219 ft
- IATA code : DNR


LFRD - Dinard

CURRENT METAR :
  • 260900Z AUTO 21008KT 9999 OVC045 08/07 Q1014 TEMPO 4000 -RADZ BKN012

EXPIRED METARs :
  • 260830Z AUTO 21007KT 9999 FEW034 BKN041 BKN048 08/07 Q1014 TEMPO 4000 -RADZ BKN012
  • 260800Z AUTO 20007KT 8000 BKN048 OVC056 07/07 Q1014 TEMPO 3000 -DZ BR BKN005
  • 260730Z AUTO 19006KT 6000 NSC 07/07 Q1014 TEMPO 3000 -DZ BR BKN005
  • 260700Z AUTO 18006KT 5000 BR NSC 06/06 Q1014 TEMPO BKN005
  • 260630Z AUTO 19007KT 6000 NSC 06/06 Q1014 TEMPO 3000 -DZ BR BKN005

TAF TAF LFRD
Valid from the 26 at 06:00 until the 27 at 06:00 UTC


260500Z 2606/2706 19010KT 6000 BKN040
TEMPO 2606/2612 4000 -RADZ BKN012
PROB30
TEMPO 2606/2610 3000 -DZ BR BKN005
BECMG 2613/2615 20015G25KT 5000 RA BKN015
TEMPO 2615/2618 3000 RA BKN008
BECMG 2618/2620 22010KT 9999 NSW BKN025
PROB30
TEMPO 2620/2706 -SHRA BKN015
ATIS : +33 2 99 16 81 50



MET'MAP, your aeronautical weather chart ! - Copyright ORBIFLY December 2007 - Disclaimer

ORBIFLY MET'MAP TEAM :

Programming & Development : Alexandra Zaïnal
Concept & original design : Baudouin d'Aumeries
Assistance for programming : Marc-Olivier Méhu
Technical & hardware support : Manuel Goepfert

Contact : metmap@orbifly.com




SOURCES & CREDITS :

   NOAA